sensor_id;sensor_type;location;lat;lon;timestamp;P1;durP1;ratioP1;P2;durP2;ratioP2
48621;SDS011;34421;48.944;9.460;2023-07-02T00:00:19;1.38;;;0.70;;
48621;SDS011;34421;48.944;9.460;2023-07-02T00:02:45;1.35;;;0.68;;
48621;SDS011;34421;48.944;9.460;2023-07-02T00:05:11;1.33;;;0.70;;
48621;SDS011;34421;48.944;9.460;2023-07-02T00:07:39;2.15;;;0.90;;
48621;SDS011;34421;48.944;9.460;2023-07-02T00:10:04;1.55;;;0.70;;
48621;SDS011;34421;48.944;9.460;2023-07-02T00:12:30;1.75;;;0.60;;
48621;SDS011;34421;48.944;9.460;2023-07-02T00:14:55;1.75;;;0.80;;
48621;SDS011;34421;48.944;9.460;2023-07-02T00:17:20;2.20;;;0.90;;
48621;SDS011;34421;48.944;9.460;2023-07-02T00:19:46;2.28;;;0.80;;
48621;SDS011;34421;48.944;9.460;2023-07-02T00:22:12;2.38;;;1.10;;
48621;SDS011;34421;48.944;9.460;2023-07-02T00:24:37;1.55;;;0.75;;
48621;SDS011;34421;48.944;9.460;2023-07-02T00:27:03;2.38;;;1.00;;
48621;SDS011;34421;48.944;9.460;2023-07-02T00:29:28;2.97;;;1.15;;
48621;SDS011;34421;48.944;9.460;2023-07-02T00:31:54;1.48;;;0.70;;
48621;SDS011;34421;48.944;9.460;2023-07-02T00:34:19;2.08;;;0.90;;
48621;SDS011;34421;48.944;9.460;2023-07-02T00:36:44;1.63;;;0.60;;
48621;SDS011;34421;48.944;9.460;2023-07-02T00:39:10;0.77;;;0.52;;
48621;SDS011;34421;48.944;9.460;2023-07-02T00:41:37;1.42;;;0.70;;
48621;SDS011;34421;48.944;9.460;2023-07-02T00:44:02;2.17;;;1.13;;
48621;SDS011;34421;48.944;9.460;2023-07-02T00:46:28;1.88;;;0.90;;
48621;SDS011;34421;48.944;9.460;2023-07-02T00:48:55;1.55;;;0.63;;
48621;SDS011;34421;48.944;9.460;2023-07-02T00:51:21;2.20;;;0.70;;
48621;SDS011;34421;48.944;9.460;2023-07-02T00:53:54;2.00;;;0.80;;
48621;SDS011;34421;48.944;9.460;2023-07-02T00:56:21;1.52;;;0.82;;
48621;SDS011;34421;48.944;9.460;2023-07-02T00:58:48;1.63;;;0.70;;
48621;SDS011;34421;48.944;9.460;2023-07-02T01:01:16;1.75;;;1.00;;
48621;SDS011;34421;48.944;9.460;2023-07-02T01:03:51;2.05;;;1.00;;
48621;SDS011;34421;48.944;9.460;2023-07-02T01:06:22;2.65;;;1.08;;
48621;SDS011;34421;48.944;9.460;2023-07-02T01:08:50;2.22;;;1.00;;
48621;SDS011;34421;48.944;9.460;2023-07-02T01:11:17;1.45;;;0.70;;
48621;SDS011;34421;48.944;9.460;2023-07-02T01:13:43;1.77;;;0.90;;
48621;SDS011;34421;48.944;9.460;2023-07-02T01:16:09;2.75;;;1.08;;
48621;SDS011;34421;48.944;9.460;2023-07-02T01:18:35;2.33;;;0.90;;
48621;SDS011;34421;48.944;9.460;2023-07-02T01:21:03;2.42;;;1.00;;
48621;SDS011;34421;48.944;9.460;2023-07-02T01:23:31;1.65;;;0.80;;
48621;SDS011;34421;48.944;9.460;2023-07-02T01:25:57;2.40;;;1.00;;
48621;SDS011;34421;48.944;9.460;2023-07-02T01:28:24;1.85;;;0.90;;
48621;SDS011;34421;48.944;9.460;2023-07-02T01:30:50;1.95;;;0.70;;
48621;SDS011;34421;48.944;9.460;2023-07-02T01:33:15;1.85;;;0.80;;
48621;SDS011;34421;48.944;9.460;2023-07-02T01:35:40;2.35;;;0.80;;
48621;SDS011;34421;48.944;9.460;2023-07-02T01:38:06;2.75;;;0.80;;
48621;SDS011;34421;48.944;9.460;2023-07-02T01:40:31;1.92;;;0.80;;
48621;SDS011;34421;48.944;9.460;2023-07-02T01:42:56;1.67;;;0.82;;
48621;SDS011;34421;48.944;9.460;2023-07-02T01:45:22;1.42;;;0.70;;
48621;SDS011;34421;48.944;9.460;2023-07-02T01:47:47;2.17;;;0.93;;
48621;SDS011;34421;48.944;9.460;2023-07-02T01:50:13;2.00;;;0.90;;
48621;SDS011;34421;48.944;9.460;2023-07-02T01:52:38;2.20;;;1.02;;
48621;SDS011;34421;48.944;9.460;2023-07-02T01:55:03;1.85;;;0.80;;
48621;SDS011;34421;48.944;9.460;2023-07-02T01:57:29;1.73;;;0.65;;
48621;SDS011;34421;48.944;9.460;2023-07-02T01:59:55;2.47;;;1.08;;
48621;SDS011;34421;48.944;9.460;2023-07-02T02:02:21;1.52;;;0.70;;
48621;SDS011;34421;48.944;9.460;2023-07-02T02:04:46;1.73;;;0.90;;
48621;SDS011;34421;48.944;9.460;2023-07-02T02:07:11;2.40;;;1.08;;
48621;SDS011;34421;48.944;9.460;2023-07-02T02:09:37;1.73;;;0.77;;
48621;SDS011;34421;48.944;9.460;2023-07-02T02:12:03;1.92;;;0.80;;
48621;SDS011;34421;48.944;9.460;2023-07-02T02:14:28;1.67;;;0.80;;
48621;SDS011;34421;48.944;9.460;2023-07-02T02:16:54;2.00;;;0.80;;
48621;SDS011;34421;48.944;9.460;2023-07-02T02:19:19;1.48;;;1.08;;
48621;SDS011;34421;48.944;9.460;2023-07-02T02:21:45;1.63;;;0.80;;
48621;SDS011;34421;48.944;9.460;2023-07-02T02:24:10;2.25;;;1.02;;
48621;SDS011;34421;48.944;9.460;2023-07-02T02:26:36;2.28;;;1.00;;
48621;SDS011;34421;48.944;9.460;2023-07-02T02:29:01;2.53;;;1.10;;
48621;SDS011;34421;48.944;9.460;2023-07-02T02:31:26;2.08;;;1.00;;
48621;SDS011;34421;48.944;9.460;2023-07-02T02:33:53;5.75;;;1.50;;
48621;SDS011;34421;48.944;9.460;2023-07-02T02:36:18;2.10;;;0.90;;
48621;SDS011;34421;48.944;9.460;2023-07-02T02:38:43;2.05;;;0.90;;
48621;SDS011;34421;48.944;9.460;2023-07-02T02:41:09;1.92;;;0.93;;
48621;SDS011;34421;48.944;9.460;2023-07-02T02:43:34;2.65;;;1.00;;
48621;SDS011;34421;48.944;9.460;2023-07-02T02:46:00;2.60;;;1.08;;
48621;SDS011;34421;48.944;9.460;2023-07-02T02:48:25;1.55;;;0.90;;
48621;SDS011;34421;48.944;9.460;2023-07-02T02:50:51;4.38;;;1.55;;
48621;SDS011;34421;48.944;9.460;2023-07-02T02:53:16;2.60;;;1.23;;
48621;SDS011;34421;48.944;9.460;2023-07-02T02:55:41;2.30;;;0.98;;
48621;SDS011;34421;48.944;9.460;2023-07-02T02:58:07;1.92;;;0.90;;
48621;SDS011;34421;48.944;9.460;2023-07-02T03:00:32;2.47;;;1.15;;
48621;SDS011;34421;48.944;9.460;2023-07-02T03:02:58;3.00;;;0.80;;
48621;SDS011;34421;48.944;9.460;2023-07-02T03:05:24;2.03;;;0.85;;
48621;SDS011;34421;48.944;9.460;2023-07-02T03:07:50;2.55;;;1.13;;
48621;SDS011;34421;48.944;9.460;2023-07-02T03:10:16;2.88;;;1.25;;
48621;SDS011;34421;48.944;9.460;2023-07-02T03:12:41;2.30;;;0.90;;
48621;SDS011;34421;48.944;9.460;2023-07-02T03:15:07;0.90;;;0.50;;
48621;SDS011;34421;48.944;9.460;2023-07-02T03:17:34;2.35;;;1.13;;
48621;SDS011;34421;48.944;9.460;2023-07-02T03:19:59;4.47;;;1.33;;
48621;SDS011;34421;48.944;9.460;2023-07-02T03:22:24;2.97;;;1.40;;
48621;SDS011;34421;48.944;9.460;2023-07-02T03:24:50;3.17;;;1.23;;
48621;SDS011;34421;48.944;9.460;2023-07-02T03:27:15;2.40;;;1.10;;
48621;SDS011;34421;48.944;9.460;2023-07-02T03:29:41;4.97;;;1.30;;
48621;SDS011;34421;48.944;9.460;2023-07-02T03:32:06;2.35;;;1.30;;
48621;SDS011;34421;48.944;9.460;2023-07-02T03:34:32;2.25;;;1.10;;
48621;SDS011;34421;48.944;9.460;2023-07-02T03:36:57;3.85;;;1.50;;
48621;SDS011;34421;48.944;9.460;2023-07-02T03:39:22;4.72;;;1.42;;
48621;SDS011;34421;48.944;9.460;2023-07-02T03:41:48;2.97;;;1.20;;
48621;SDS011;34421;48.944;9.460;2023-07-02T03:44:13;2.80;;;1.00;;
48621;SDS011;34421;48.944;9.460;2023-07-02T03:46:38;2.40;;;0.98;;
48621;SDS011;34421;48.944;9.460;2023-07-02T03:49:04;2.55;;;1.05;;
48621;SDS011;34421;48.944;9.460;2023-07-02T03:51:30;3.30;;;1.45;;
48621;SDS011;34421;48.944;9.460;2023-07-02T03:53:55;3.30;;;1.42;;
48621;SDS011;34421;48.944;9.460;2023-07-02T03:56:21;3.08;;;1.50;;
48621;SDS011;34421;48.944;9.460;2023-07-02T03:58:46;3.22;;;1.05;;
48621;SDS011;34421;48.944;9.460;2023-07-02T04:01:11;3.58;;;1.38;;
48621;SDS011;34421;48.944;9.460;2023-07-02T04:03:37;2.42;;;1.10;;
48621;SDS011;34421;48.944;9.460;2023-07-02T04:06:03;2.17;;;1.13;;
48621;SDS011;34421;48.944;9.460;2023-07-02T04:08:30;3.20;;;1.25;;
48621;SDS011;34421;48.944;9.460;2023-07-02T04:10:56;3.30;;;1.48;;
48621;SDS011;34421;48.944;9.460;2023-07-02T04:13:22;5.05;;;1.25;;
48621;SDS011;34421;48.944;9.460;2023-07-02T04:15:47;3.38;;;1.58;;
48621;SDS011;34421;48.944;9.460;2023-07-02T04:18:12;2.95;;;1.50;;
48621;SDS011;34421;48.944;9.460;2023-07-02T04:20:38;2.97;;;1.30;;
48621;SDS011;34421;48.944;9.460;2023-07-02T04:23:04;3.67;;;1.20;;
48621;SDS011;34421;48.944;9.460;2023-07-02T04:25:29;2.53;;;1.30;;
48621;SDS011;34421;48.944;9.460;2023-07-02T04:27:55;4.47;;;1.20;;
48621;SDS011;34421;48.944;9.460;2023-07-02T04:30:21;2.92;;;1.20;;
48621;SDS011;34421;48.944;9.460;2023-07-02T04:32:47;2.17;;;1.13;;
48621;SDS011;34421;48.944;9.460;2023-07-02T04:35:12;5.20;;;2.05;;
48621;SDS011;34421;48.944;9.460;2023-07-02T04:37:37;4.30;;;2.00;;
48621;SDS011;34421;48.944;9.460;2023-07-02T04:40:03;4.70;;;1.73;;
48621;SDS011;34421;48.944;9.460;2023-07-02T04:42:34;3.70;;;1.65;;
48621;SDS011;34421;48.944;9.460;2023-07-02T04:45:03;3.28;;;1.27;;
48621;SDS011;34421;48.944;9.460;2023-07-02T04:47:29;3.45;;;1.52;;
48621;SDS011;34421;48.944;9.460;2023-07-02T04:49:55;4.38;;;1.52;;
48621;SDS011;34421;48.944;9.460;2023-07-02T04:52:20;4.20;;;2.10;;
48621;SDS011;34421;48.944;9.460;2023-07-02T04:54:48;4.78;;;2.03;;
48621;SDS011;34421;48.944;9.460;2023-07-02T04:57:14;3.97;;;1.55;;
48621;SDS011;34421;48.944;9.460;2023-07-02T04:59:40;2.85;;;1.65;;
48621;SDS011;34421;48.944;9.460;2023-07-02T05:02:06;4.97;;;1.95;;
48621;SDS011;34421;48.944;9.460;2023-07-02T05:04:31;2.20;;;1.10;;
48621;SDS011;34421;48.944;9.460;2023-07-02T05:06:57;3.72;;;1.48;;
48621;SDS011;34421;48.944;9.460;2023-07-02T05:09:22;2.97;;;1.52;;
48621;SDS011;34421;48.944;9.460;2023-07-02T05:11:47;4.40;;;2.03;;
48621;SDS011;34421;48.944;9.460;2023-07-02T05:14:13;4.25;;;1.88;;
48621;SDS011;34421;48.944;9.460;2023-07-02T05:16:38;4.75;;;1.95;;
48621;SDS011;34421;48.944;9.460;2023-07-02T05:19:03;3.85;;;1.60;;
48621;SDS011;34421;48.944;9.460;2023-07-02T05:21:28;3.95;;;1.27;;
48621;SDS011;34421;48.944;9.460;2023-07-02T05:23:54;4.35;;;1.65;;
48621;SDS011;34421;48.944;9.460;2023-07-02T05:26:19;3.17;;;1.27;;
48621;SDS011;34421;48.944;9.460;2023-07-02T05:28:45;3.10;;;1.30;;
48621;SDS011;34421;48.944;9.460;2023-07-02T05:31:10;2.65;;;1.10;;
48621;SDS011;34421;48.944;9.460;2023-07-02T05:33:36;4.60;;;1.63;;
48621;SDS011;34421;48.944;9.460;2023-07-02T05:36:03;4.55;;;1.73;;
48621;SDS011;34421;48.944;9.460;2023-07-02T05:38:28;3.58;;;1.27;;
48621;SDS011;34421;48.944;9.460;2023-07-02T05:40:53;3.67;;;1.40;;
48621;SDS011;34421;48.944;9.460;2023-07-02T05:43:19;2.75;;;1.17;;
48621;SDS011;34421;48.944;9.460;2023-07-02T05:45:44;6.05;;;1.88;;
48621;SDS011;34421;48.944;9.460;2023-07-02T05:48:09;3.35;;;1.63;;
48621;SDS011;34421;48.944;9.460;2023-07-02T05:50:35;3.70;;;1.80;;
48621;SDS011;34421;48.944;9.460;2023-07-02T05:53:00;3.47;;;1.40;;
48621;SDS011;34421;48.944;9.460;2023-07-02T05:55:25;2.92;;;1.42;;
48621;SDS011;34421;48.944;9.460;2023-07-02T05:57:51;4.38;;;1.88;;
48621;SDS011;34421;48.944;9.460;2023-07-02T06:00:16;3.17;;;1.13;;
48621;SDS011;34421;48.944;9.460;2023-07-02T06:02:42;3.53;;;1.17;;
48621;SDS011;34421;48.944;9.460;2023-07-02T06:05:07;3.47;;;1.33;;
48621;SDS011;34421;48.944;9.460;2023-07-02T06:07:33;2.67;;;0.80;;
48621;SDS011;34421;48.944;9.460;2023-07-02T06:09:58;6.50;;;1.65;;
48621;SDS011;34421;48.944;9.460;2023-07-02T06:12:23;2.80;;;1.13;;
48621;SDS011;34421;48.944;9.460;2023-07-02T06:14:49;1.85;;;0.82;;
48621;SDS011;34421;48.944;9.460;2023-07-02T06:17:14;4.82;;;1.70;;
48621;SDS011;34421;48.944;9.460;2023-07-02T06:19:40;3.83;;;1.58;;
48621;SDS011;34421;48.944;9.460;2023-07-02T06:22:06;3.70;;;1.45;;
48621;SDS011;34421;48.944;9.460;2023-07-02T06:24:31;3.95;;;1.75;;
48621;SDS011;34421;48.944;9.460;2023-07-02T06:26:56;4.63;;;2.00;;
48621;SDS011;34421;48.944;9.460;2023-07-02T06:29:22;4.03;;;1.60;;
48621;SDS011;34421;48.944;9.460;2023-07-02T06:31:48;3.50;;;1.45;;
48621;SDS011;34421;48.944;9.460;2023-07-02T06:34:14;3.22;;;1.48;;
48621;SDS011;34421;48.944;9.460;2023-07-02T06:36:40;4.78;;;1.98;;
48621;SDS011;34421;48.944;9.460;2023-07-02T06:39:06;3.75;;;1.70;;
48621;SDS011;34421;48.944;9.460;2023-07-02T06:41:31;5.40;;;2.28;;
48621;SDS011;34421;48.944;9.460;2023-07-02T06:43:57;4.95;;;2.10;;
48621;SDS011;34421;48.944;9.460;2023-07-02T06:46:22;5.63;;;1.88;;
48621;SDS011;34421;48.944;9.460;2023-07-02T06:48:47;4.43;;;2.33;;
48621;SDS011;34421;48.944;9.460;2023-07-02T06:51:13;7.32;;;2.40;;
48621;SDS011;34421;48.944;9.460;2023-07-02T06:53:40;11.75;;;3.22;;
48621;SDS011;34421;48.944;9.460;2023-07-02T06:56:07;11.65;;;3.40;;
48621;SDS011;34421;48.944;9.460;2023-07-02T06:58:34;5.32;;;2.85;;
48621;SDS011;34421;48.944;9.460;2023-07-02T07:00:59;9.20;;;3.15;;
48621;SDS011;34421;48.944;9.460;2023-07-02T07:03:25;6.75;;;2.95;;
48621;SDS011;34421;48.944;9.460;2023-07-02T07:05:50;4.28;;;1.83;;
48621;SDS011;34421;48.944;9.460;2023-07-02T07:08:15;6.53;;;3.05;;
48621;SDS011;34421;48.944;9.460;2023-07-02T07:10:41;6.13;;;2.83;;
48621;SDS011;34421;48.944;9.460;2023-07-02T07:13:06;6.57;;;2.55;;
48621;SDS011;34421;48.944;9.460;2023-07-02T07:15:32;4.88;;;2.25;;
48621;SDS011;34421;48.944;9.460;2023-07-02T07:18:02;5.35;;;2.47;;
48621;SDS011;34421;48.944;9.460;2023-07-02T07:20:28;3.58;;;1.80;;
48621;SDS011;34421;48.944;9.460;2023-07-02T07:22:54;5.50;;;1.67;;
48621;SDS011;34421;48.944;9.460;2023-07-02T07:25:19;5.18;;;2.33;;
48621;SDS011;34421;48.944;9.460;2023-07-02T07:27:45;5.20;;;2.38;;
48621;SDS011;34421;48.944;9.460;2023-07-02T07:30:10;6.07;;;2.72;;
48621;SDS011;34421;48.944;9.460;2023-07-02T07:32:36;5.63;;;2.22;;
48621;SDS011;34421;48.944;9.460;2023-07-02T07:35:01;5.85;;;2.78;;
48621;SDS011;34421;48.944;9.460;2023-07-02T07:37:26;17.98;;;3.45;;
48621;SDS011;34421;48.944;9.460;2023-07-02T07:39:55;14.40;;;4.43;;
48621;SDS011;34421;48.944;9.460;2023-07-02T07:42:21;12.68;;;4.15;;
48621;SDS011;34421;48.944;9.460;2023-07-02T07:44:46;8.20;;;3.03;;
48621;SDS011;34421;48.944;9.460;2023-07-02T07:47:12;13.00;;;4.53;;
48621;SDS011;34421;48.944;9.460;2023-07-02T07:49:37;9.27;;;4.15;;
48621;SDS011;34421;48.944;9.460;2023-07-02T07:52:03;12.52;;;4.70;;
48621;SDS011;34421;48.944;9.460;2023-07-02T07:54:31;8.93;;;3.25;;
48621;SDS011;34421;48.944;9.460;2023-07-02T07:56:57;6.30;;;3.13;;
48621;SDS011;34421;48.944;9.460;2023-07-02T07:59:22;10.30;;;3.85;;
48621;SDS011;34421;48.944;9.460;2023-07-02T08:01:47;6.55;;;2.83;;
48621;SDS011;34421;48.944;9.460;2023-07-02T08:04:13;9.35;;;3.97;;
48621;SDS011;34421;48.944;9.460;2023-07-02T08:06:38;8.90;;;4.13;;
48621;SDS011;34421;48.944;9.460;2023-07-02T08:09:03;8.38;;;3.63;;
48621;SDS011;34421;48.944;9.460;2023-07-02T08:11:29;7.43;;;3.53;;
48621;SDS011;34421;48.944;9.460;2023-07-02T08:13:54;9.95;;;3.60;;
48621;SDS011;34421;48.944;9.460;2023-07-02T08:16:20;10.40;;;3.92;;
48621;SDS011;34421;48.944;9.460;2023-07-02T08:18:45;6.88;;;3.75;;
48621;SDS011;34421;48.944;9.460;2023-07-02T08:21:10;9.57;;;3.88;;
48621;SDS011;34421;48.944;9.460;2023-07-02T08:23:36;8.80;;;4.00;;
48621;SDS011;34421;48.944;9.460;2023-07-02T08:26:02;6.93;;;3.78;;
48621;SDS011;34421;48.944;9.460;2023-07-02T08:28:28;12.20;;;4.53;;
48621;SDS011;34421;48.944;9.460;2023-07-02T08:30:53;7.85;;;4.28;;
48621;SDS011;34421;48.944;9.460;2023-07-02T08:33:19;9.43;;;4.95;;
48621;SDS011;34421;48.944;9.460;2023-07-02T08:35:45;9.70;;;4.38;;
48621;SDS011;34421;48.944;9.460;2023-07-02T08:38:10;8.82;;;4.20;;
48621;SDS011;34421;48.944;9.460;2023-07-02T08:40:35;8.45;;;3.95;;
48621;SDS011;34421;48.944;9.460;2023-07-02T08:43:01;7.40;;;4.10;;
48621;SDS011;34421;48.944;9.460;2023-07-02T08:45:26;11.18;;;4.60;;
48621;SDS011;34421;48.944;9.460;2023-07-02T08:47:52;9.93;;;5.15;;
48621;SDS011;34421;48.944;9.460;2023-07-02T08:50:21;9.52;;;4.00;;
48621;SDS011;34421;48.944;9.460;2023-07-02T08:52:47;6.90;;;3.33;;
48621;SDS011;34421;48.944;9.460;2023-07-02T08:55:12;7.38;;;3.35;;
48621;SDS011;34421;48.944;9.460;2023-07-02T08:57:38;6.05;;;3.58;;
48621;SDS011;34421;48.944;9.460;2023-07-02T09:00:09;11.20;;;4.60;;
48621;SDS011;34421;48.944;9.460;2023-07-02T09:02:35;8.60;;;4.28;;
48621;SDS011;34421;48.944;9.460;2023-07-02T09:05:01;10.45;;;4.88;;
48621;SDS011;34421;48.944;9.460;2023-07-02T09:07:27;11.00;;;4.72;;
48621;SDS011;34421;48.944;9.460;2023-07-02T09:09:53;12.07;;;5.68;;
48621;SDS011;34421;48.944;9.460;2023-07-02T09:12:31;10.88;;;5.50;;
48621;SDS011;34421;48.944;9.460;2023-07-02T09:15:06;9.20;;;4.65;;
48621;SDS011;34421;48.944;9.460;2023-07-02T09:17:32;8.43;;;4.53;;
48621;SDS011;34421;48.944;9.460;2023-07-02T09:20:00;7.00;;;3.53;;
48621;SDS011;34421;48.944;9.460;2023-07-02T09:22:27;8.68;;;3.85;;
48621;SDS011;34421;48.944;9.460;2023-07-02T09:24:54;10.15;;;4.88;;
48621;SDS011;34421;48.944;9.460;2023-07-02T09:27:21;11.93;;;5.68;;
48621;SDS011;34421;48.944;9.460;2023-07-02T09:29:50;7.53;;;4.18;;
48621;SDS011;34421;48.944;9.460;2023-07-02T09:32:23;10.00;;;5.20;;
48621;SDS011;34421;48.944;9.460;2023-07-02T09:34:50;10.25;;;6.07;;
48621;SDS011;34421;48.944;9.460;2023-07-02T09:37:15;11.40;;;5.55;;
48621;SDS011;34421;48.944;9.460;2023-07-02T09:39:41;9.77;;;5.20;;
48621;SDS011;34421;48.944;9.460;2023-07-02T09:42:07;10.68;;;5.45;;
48621;SDS011;34421;48.944;9.460;2023-07-02T09:44:34;9.77;;;5.32;;
48621;SDS011;34421;48.944;9.460;2023-07-02T09:47:04;10.60;;;5.47;;
48621;SDS011;34421;48.944;9.460;2023-07-02T09:49:31;10.68;;;6.18;;
48621;SDS011;34421;48.944;9.460;2023-07-02T09:52:02;12.20;;;5.72;;
48621;SDS011;34421;48.944;9.460;2023-07-02T09:54:30;12.27;;;5.68;;
48621;SDS011;34421;48.944;9.460;2023-07-02T09:56:56;8.77;;;5.00;;
48621;SDS011;34421;48.944;9.460;2023-07-02T09:59:23;9.35;;;5.10;;
48621;SDS011;34421;48.944;9.460;2023-07-02T10:01:50;13.55;;;5.68;;
48621;SDS011;34421;48.944;9.460;2023-07-02T10:04:19;11.68;;;6.22;;
48621;SDS011;34421;48.944;9.460;2023-07-02T10:06:55;13.13;;;6.47;;
48621;SDS011;34421;48.944;9.460;2023-07-02T10:09:34;9.40;;;5.00;;
48621;SDS011;34421;48.944;9.460;2023-07-02T10:11:59;12.52;;;6.50;;
48621;SDS011;34421;48.944;9.460;2023-07-02T10:14:25;11.38;;;5.45;;
48621;SDS011;34421;48.944;9.460;2023-07-02T10:16:53;11.43;;;5.03;;
48621;SDS011;34421;48.944;9.460;2023-07-02T10:19:20;9.20;;;4.88;;
48621;SDS011;34421;48.944;9.460;2023-07-02T10:21:46;10.18;;;4.95;;
48621;SDS011;34421;48.944;9.460;2023-07-02T10:24:25;12.68;;;6.80;;
48621;SDS011;34421;48.944;9.460;2023-07-02T10:27:00;11.25;;;6.25;;
48621;SDS011;34421;48.944;9.460;2023-07-02T10:29:27;8.70;;;4.40;;
48621;SDS011;34421;48.944;9.460;2023-07-02T10:31:55;9.90;;;5.03;;
48621;SDS011;34421;48.944;9.460;2023-07-02T10:34:39;12.82;;;5.68;;
48621;SDS011;34421;48.944;9.460;2023-07-02T10:37:04;9.73;;;5.47;;
48621;SDS011;34421;48.944;9.460;2023-07-02T10:39:30;13.52;;;5.57;;
48621;SDS011;34421;48.944;9.460;2023-07-02T10:42:09;11.25;;;6.05;;
48621;SDS011;34421;48.944;9.460;2023-07-02T10:44:46;9.45;;;4.63;;
48621;SDS011;34421;48.944;9.460;2023-07-02T10:47:15;9.73;;;5.30;;
48621;SDS011;34421;48.944;9.460;2023-07-02T10:49:43;11.27;;;5.40;;
48621;SDS011;34421;48.944;9.460;2023-07-02T10:52:09;10.15;;;5.97;;
48621;SDS011;34421;48.944;9.460;2023-07-02T10:54:45;11.65;;;6.63;;
48621;SDS011;34421;48.944;9.460;2023-07-02T10:57:15;10.95;;;5.57;;
48621;SDS011;34421;48.944;9.460;2023-07-02T10:59:45;12.45;;;7.20;;
48621;SDS011;34421;48.944;9.460;2023-07-02T11:02:11;9.15;;;5.38;;
48621;SDS011;34421;48.944;9.460;2023-07-02T11:04:36;7.70;;;5.10;;
48621;SDS011;34421;48.944;9.460;2023-07-02T11:07:02;10.02;;;5.82;;
48621;SDS011;34421;48.944;9.460;2023-07-02T11:09:28;10.15;;;5.10;;
48621;SDS011;34421;48.944;9.460;2023-07-02T11:11:58;13.93;;;7.13;;
48621;SDS011;34421;48.944;9.460;2023-07-02T11:14:27;10.65;;;5.45;;
48621;SDS011;34421;48.944;9.460;2023-07-02T11:16:54;10.48;;;6.30;;
48621;SDS011;34421;48.944;9.460;2023-07-02T11:19:20;9.05;;;4.03;;
48621;SDS011;34421;48.944;9.460;2023-07-02T11:21:52;10.75;;;5.65;;
48621;SDS011;34421;48.944;9.460;2023-07-02T11:24:26;10.43;;;5.13;;
48621;SDS011;34421;48.944;9.460;2023-07-02T11:26:58;11.23;;;5.47;;
48621;SDS011;34421;48.944;9.460;2023-07-02T11:29:24;10.30;;;5.18;;
48621;SDS011;34421;48.944;9.460;2023-07-02T11:31:50;11.18;;;6.43;;
48621;SDS011;34421;48.944;9.460;2023-07-02T11:34:16;11.20;;;6.07;;
48621;SDS011;34421;48.944;9.460;2023-07-02T11:36:43;9.23;;;5.57;;
48621;SDS011;34421;48.944;9.460;2023-07-02T11:39:09;11.95;;;6.30;;
48621;SDS011;34421;48.944;9.460;2023-07-02T11:41:38;12.20;;;5.43;;
48621;SDS011;34421;48.944;9.460;2023-07-02T11:44:03;11.65;;;5.80;;
48621;SDS011;34421;48.944;9.460;2023-07-02T11:46:29;10.68;;;5.82;;
48621;SDS011;34421;48.944;9.460;2023-07-02T11:48:54;9.32;;;5.20;;
48621;SDS011;34421;48.944;9.460;2023-07-02T11:51:21;12.32;;;5.63;;
48621;SDS011;34421;48.944;9.460;2023-07-02T11:53:46;10.18;;;5.43;;
48621;SDS011;34421;48.944;9.460;2023-07-02T11:56:12;12.30;;;5.80;;
48621;SDS011;34421;48.944;9.460;2023-07-02T11:58:38;13.23;;;6.32;;
48621;SDS011;34421;48.944;9.460;2023-07-02T12:01:07;10.65;;;5.40;;
48621;SDS011;34421;48.944;9.460;2023-07-02T12:03:33;10.65;;;5.35;;
48621;SDS011;34421;48.944;9.460;2023-07-02T12:05:58;10.50;;;5.88;;
48621;SDS011;34421;48.944;9.460;2023-07-02T12:08:23;9.13;;;5.50;;
48621;SDS011;34421;48.944;9.460;2023-07-02T12:10:49;10.60;;;5.90;;
48621;SDS011;34421;48.944;9.460;2023-07-02T12:13:14;11.88;;;5.38;;
48621;SDS011;34421;48.944;9.460;2023-07-02T12:15:40;10.80;;;5.55;;
48621;SDS011;34421;48.944;9.460;2023-07-02T12:18:05;11.00;;;5.47;;
48621;SDS011;34421;48.944;9.460;2023-07-02T12:20:31;9.70;;;5.18;;
48621;SDS011;34421;48.944;9.460;2023-07-02T12:22:56;11.02;;;5.70;;
48621;SDS011;34421;48.944;9.460;2023-07-02T12:25:22;10.68;;;5.63;;
48621;SDS011;34421;48.944;9.460;2023-07-02T12:27:47;8.45;;;4.93;;
48621;SDS011;34421;48.944;9.460;2023-07-02T12:30:13;10.38;;;5.43;;
48621;SDS011;34421;48.944;9.460;2023-07-02T12:32:42;9.27;;;5.53;;
48621;SDS011;34421;48.944;9.460;2023-07-02T12:35:08;10.85;;;5.47;;
48621;SDS011;34421;48.944;9.460;2023-07-02T12:37:34;11.02;;;4.93;;
48621;SDS011;34421;48.944;9.460;2023-07-02T12:39:59;10.30;;;5.25;;
48621;SDS011;34421;48.944;9.460;2023-07-02T12:42:25;10.52;;;5.85;;
48621;SDS011;34421;48.944;9.460;2023-07-02T12:44:50;9.70;;;5.68;;
48621;SDS011;34421;48.944;9.460;2023-07-02T12:47:15;10.68;;;5.47;;
48621;SDS011;34421;48.944;9.460;2023-07-02T12:49:41;9.82;;;4.72;;
48621;SDS011;34421;48.944;9.460;2023-07-02T12:52:06;8.68;;;5.20;;
48621;SDS011;34421;48.944;9.460;2023-07-02T12:54:31;12.05;;;5.90;;
48621;SDS011;34421;48.944;9.460;2023-07-02T12:56:57;10.45;;;5.68;;
48621;SDS011;34421;48.944;9.460;2023-07-02T12:59:22;13.70;;;5.90;;
48621;SDS011;34421;48.944;9.460;2023-07-02T13:01:48;9.38;;;4.85;;
48621;SDS011;34421;48.944;9.460;2023-07-02T13:04:13;10.45;;;5.70;;
48621;SDS011;34421;48.944;9.460;2023-07-02T13:06:40;10.95;;;5.47;;
48621;SDS011;34421;48.944;9.460;2023-07-02T13:09:06;11.40;;;5.40;;
48621;SDS011;34421;48.944;9.460;2023-07-02T13:11:32;8.70;;;4.80;;
48621;SDS011;34421;48.944;9.460;2023-07-02T13:13:57;10.05;;;4.78;;
48621;SDS011;34421;48.944;9.460;2023-07-02T13:16:23;8.85;;;4.88;;
48621;SDS011;34421;48.944;9.460;2023-07-02T13:18:49;12.25;;;5.40;;
48621;SDS011;34421;48.944;9.460;2023-07-02T13:21:14;12.90;;;5.70;;
48621;SDS011;34421;48.944;9.460;2023-07-02T13:23:39;9.93;;;4.70;;
48621;SDS011;34421;48.944;9.460;2023-07-02T13:26:05;9.65;;;5.28;;
48621;SDS011;34421;48.944;9.460;2023-07-02T13:28:30;12.27;;;5.55;;
48621;SDS011;34421;48.944;9.460;2023-07-02T13:30:56;11.73;;;5.90;;
48621;SDS011;34421;48.944;9.460;2023-07-02T13:33:21;10.32;;;5.15;;
48621;SDS011;34421;48.944;9.460;2023-07-02T13:35:47;10.57;;;5.20;;
48621;SDS011;34421;48.944;9.460;2023-07-02T13:38:12;10.05;;;5.13;;
48621;SDS011;34421;48.944;9.460;2023-07-02T13:40:38;11.13;;;5.72;;
48621;SDS011;34421;48.944;9.460;2023-07-02T13:43:04;14.57;;;6.18;;
48621;SDS011;34421;48.944;9.460;2023-07-02T13:45:29;13.30;;;6.13;;
48621;SDS011;34421;48.944;9.460;2023-07-02T13:47:55;11.02;;;6.00;;
48621;SDS011;34421;48.944;9.460;2023-07-02T13:50:20;10.35;;;5.65;;
48621;SDS011;34421;48.944;9.460;2023-07-02T13:52:45;12.30;;;6.13;;
48621;SDS011;34421;48.944;9.460;2023-07-02T13:55:15;10.90;;;5.85;;
48621;SDS011;34421;48.944;9.460;2023-07-02T13:57:41;12.82;;;6.28;;
48621;SDS011;34421;48.944;9.460;2023-07-02T14:00:07;9.60;;;5.22;;
48621;SDS011;34421;48.944;9.460;2023-07-02T14:02:33;11.23;;;5.43;;
48621;SDS011;34421;48.944;9.460;2023-07-02T14:04:59;9.73;;;5.32;;
48621;SDS011;34421;48.944;9.460;2023-07-02T14:07:24;9.73;;;4.70;;
48621;SDS011;34421;48.944;9.460;2023-07-02T14:09:50;11.32;;;5.75;;
48621;SDS011;34421;48.944;9.460;2023-07-02T14:12:16;11.90;;;5.28;;
48621;SDS011;34421;48.944;9.460;2023-07-02T14:14:41;12.75;;;5.45;;
48621;SDS011;34421;48.944;9.460;2023-07-02T14:17:07;11.30;;;5.30;;
48621;SDS011;34421;48.944;9.460;2023-07-02T14:19:33;10.13;;;5.43;;
48621;SDS011;34421;48.944;9.460;2023-07-02T14:21:58;9.77;;;5.20;;
48621;SDS011;34421;48.944;9.460;2023-07-02T14:24:23;9.18;;;4.82;;
48621;SDS011;34421;48.944;9.460;2023-07-02T14:26:49;9.63;;;5.40;;
48621;SDS011;34421;48.944;9.460;2023-07-02T14:29:14;11.00;;;5.47;;
48621;SDS011;34421;48.944;9.460;2023-07-02T14:31:39;10.30;;;4.82;;
48621;SDS011;34421;48.944;9.460;2023-07-02T14:34:05;9.23;;;4.32;;
48621;SDS011;34421;48.944;9.460;2023-07-02T14:36:30;10.05;;;4.75;;